createdAt,value
2022-11-05T00:02:05.940Z,9.73
2022-11-05T00:04:50.723Z,9.45
2022-11-05T00:07:38.440Z,9.23
2022-11-05T00:10:12.102Z,8.82
2022-11-05T00:12:57.141Z,8.75
2022-11-05T00:15:41.904Z,9.90
2022-11-05T00:18:08.263Z,9.32
2022-11-05T00:20:34.556Z,11.32
2022-11-05T00:23:20.331Z,11.45
2022-11-05T00:26:00.181Z,10.00
2022-11-05T00:28:27.314Z,9.10
2022-11-05T00:30:54.315Z,9.43
2022-11-05T00:33:20.691Z,9.70
2022-11-05T00:35:46.951Z,8.10
2022-11-05T00:38:13.366Z,9.45
2022-11-05T00:40:39.664Z,11.13
2022-11-05T00:43:24.571Z,8.98
2022-11-05T00:45:50.837Z,9.52
2022-11-05T00:48:35.575Z,9.32
2022-11-05T00:51:01.963Z,8.82
2022-11-05T00:53:28.325Z,10.20
2022-11-05T00:55:54.606Z,11.38
2022-11-05T00:58:22.158Z,10.48
2022-11-05T01:00:49.509Z,9.10
2022-11-05T01:03:17.445Z,10.93
2022-11-05T01:05:44.911Z,11.75
2022-11-05T01:08:12.297Z,12.32
2022-11-05T01:10:49.159Z,10.40
2022-11-05T01:13:35.693Z,11.18
2022-11-05T01:16:05.676Z,12.90
2022-11-05T01:18:32.040Z,11.18
2022-11-05T01:20:58.399Z,12.85
2022-11-05T01:23:24.777Z,12.40
2022-11-05T01:25:51.065Z,13.23
2022-11-05T01:28:17.397Z,11.88
2022-11-05T01:30:43.693Z,12.52
2022-11-05T01:33:10.346Z,11.77
2022-11-05T01:35:36.882Z,12.50
2022-11-05T01:38:03.280Z,13.93
2022-11-05T01:40:29.536Z,14.65
2022-11-05T01:42:55.869Z,15.20
2022-11-05T01:45:26.093Z,16.45
2022-11-05T01:48:01.232Z,14.13
2022-11-05T01:50:42.883Z,15.05
2022-11-05T01:53:27.469Z,15.60
2022-11-05T01:56:01.201Z,16.50
2022-11-05T01:58:30.492Z,16.38
2022-11-05T02:00:57.193Z,17.95
2022-11-05T02:03:24.008Z,19.38
2022-11-05T02:05:51.535Z,17.13
2022-11-05T02:08:22.370Z,17.20
2022-11-05T02:10:48.649Z,18.60
2022-11-05T02:13:15.161Z,18.08
2022-11-05T02:15:53.960Z,17.77
2022-11-05T02:18:24.557Z,16.92
2022-11-05T02:21:08.252Z,17.83
2022-11-05T02:23:37.727Z,18.42
2022-11-05T02:26:19.164Z,21.25
2022-11-05T02:29:00.836Z,19.65
2022-11-05T02:31:33.244Z,20.00
2022-11-05T02:34:22.483Z,20.48
2022-11-05T02:36:54.525Z,19.80
2022-11-05T02:39:27.520Z,21.20
2022-11-05T02:42:04.728Z,21.98
2022-11-05T02:44:37.751Z,21.33
2022-11-05T02:47:23.059Z,22.05
2022-11-05T02:49:53.947Z,21.65
2022-11-05T02:52:28.204Z,18.85
2022-11-05T02:55:13.085Z,20.85
2022-11-05T02:57:43.637Z,20.83
2022-11-05T03:00:28.593Z,20.98
2022-11-05T03:02:55.135Z,20.75
2022-11-05T03:05:25.800Z,20.10
2022-11-05T03:07:55.902Z,19.95
2022-11-05T03:10:41.749Z,18.67
2022-11-05T03:13:14.017Z,20.25
2022-11-05T03:15:40.509Z,21.83
2022-11-05T03:18:25.813Z,21.80
2022-11-05T03:21:04.860Z,20.20
2022-11-05T03:23:36.004Z,20.38
2022-11-05T03:26:08.312Z,20.42
2022-11-05T03:28:35.573Z,22.00
2022-11-05T03:31:03.623Z,20.77
2022-11-05T03:33:31.402Z,20.80
2022-11-05T03:36:00.359Z,22.60
2022-11-05T03:38:34.041Z,22.30
2022-11-05T03:41:03.633Z,22.65
2022-11-05T03:43:32.832Z,21.67
2022-11-05T03:46:01.329Z,22.55
2022-11-05T03:48:29.157Z,22.25
2022-11-05T03:51:14.218Z,22.33
2022-11-05T03:53:43.436Z,22.73
2022-11-05T03:56:12.797Z,22.52
2022-11-05T03:58:42.873Z,25.83
2022-11-05T04:01:09.370Z,22.42
2022-11-05T04:03:36.415Z,21.83
2022-11-05T04:06:22.997Z,21.02
2022-11-05T04:09:07.740Z,21.30
2022-11-05T04:11:52.569Z,23.10
2022-11-05T04:14:19.168Z,21.20
2022-11-05T04:17:04.349Z,21.50
2022-11-05T04:19:49.385Z,23.20
2022-11-05T04:22:34.093Z,20.98
2022-11-05T04:25:00.371Z,19.92
2022-11-05T04:27:26.706Z,20.05
2022-11-05T04:30:11.339Z,19.33
2022-11-05T04:32:37.617Z,21.70
2022-11-05T04:35:04.083Z,20.40
2022-11-05T04:37:30.364Z,19.60
2022-11-05T04:39:56.861Z,18.77
2022-11-05T04:42:23.137Z,20.45
2022-11-05T04:44:49.425Z,20.83
2022-11-05T04:47:15.695Z,19.70
2022-11-05T04:49:41.980Z,22.55
2022-11-05T04:52:08.598Z,21.23
2022-11-05T04:54:34.872Z,22.60
2022-11-05T04:57:01.211Z,21.27
2022-11-05T04:59:27.506Z,22.25
2022-11-05T05:01:53.839Z,24.88
2022-11-05T05:04:20.692Z,22.13
2022-11-05T05:06:46.951Z,22.42
2022-11-05T05:09:13.235Z,22.15
2022-11-05T05:11:41.002Z,22.38
2022-11-05T05:14:07.362Z,22.73
2022-11-05T05:16:33.652Z,21.42
2022-11-05T05:18:59.933Z,22.10
2022-11-05T05:21:41.622Z,20.27
2022-11-05T05:24:12.568Z,20.90
2022-11-05T05:26:40.192Z,20.70
2022-11-05T05:29:06.875Z,21.17
2022-11-05T05:31:33.176Z,21.35
2022-11-05T05:33:59.470Z,22.08
2022-11-05T05:36:25.769Z,22.25
2022-11-05T05:38:52.274Z,20.33
2022-11-05T05:41:18.838Z,19.75
2022-11-05T05:43:45.126Z,19.50
2022-11-05T05:46:12.967Z,19.88
2022-11-05T05:48:39.746Z,20.52
2022-11-05T05:51:07.267Z,21.10
2022-11-05T05:53:33.873Z,18.27
2022-11-05T05:56:00.378Z,19.92
2022-11-05T05:58:27.380Z,19.40
2022-11-05T06:00:54.290Z,25.25
2022-11-05T06:03:20.844Z,23.27
2022-11-05T06:05:47.118Z,20.17
2022-11-05T06:08:13.416Z,23.67
2022-11-05T06:10:40.184Z,20.85
2022-11-05T06:13:06.570Z,19.25
2022-11-05T06:15:35.933Z,19.40
2022-11-05T06:18:02.543Z,21.48
2022-11-05T06:20:28.927Z,20.90
2022-11-05T06:22:55.997Z,20.40
2022-11-05T06:25:22.398Z,17.02
2022-11-05T06:27:48.676Z,17.60
2022-11-05T06:30:15.053Z,18.38
2022-11-05T06:32:41.386Z,16.08
2022-11-05T06:35:07.821Z,16.27
2022-11-05T06:37:34.170Z,14.50
2022-11-05T06:40:00.550Z,14.73
2022-11-05T06:42:27.234Z,17.92
2022-11-05T06:44:53.513Z,15.82
2022-11-05T06:47:20.061Z,15.55
2022-11-05T06:49:46.809Z,19.52
2022-11-05T06:52:14.114Z,16.52
2022-11-05T06:54:42.196Z,16.40
2022-11-05T06:57:09.890Z,16.15
2022-11-05T06:59:36.895Z,17.02
2022-11-05T07:02:03.243Z,21.63
2022-11-05T07:04:29.640Z,24.95
2022-11-05T07:06:55.911Z,18.65
2022-11-05T07:09:22.306Z,15.73
2022-11-05T07:11:48.573Z,15.95
2022-11-05T07:14:14.853Z,14.52
2022-11-05T07:16:41.133Z,14.73
2022-11-05T07:19:07.433Z,14.88
2022-11-05T07:21:33.690Z,14.70
2022-11-05T07:23:59.993Z,14.15
2022-11-05T07:26:31.893Z,13.43
2022-11-05T07:29:00.611Z,13.90
2022-11-05T07:31:26.869Z,15.02
2022-11-05T07:33:53.145Z,13.90
2022-11-05T07:36:19.417Z,12.73
2022-11-05T07:38:45.698Z,13.27
2022-11-05T07:41:11.978Z,14.23
2022-11-05T07:43:38.311Z,15.57
2022-11-05T07:46:05.956Z,14.60
2022-11-05T07:48:33.949Z,15.70
2022-11-05T07:51:00.281Z,13.68
2022-11-05T07:53:26.683Z,13.15
2022-11-05T07:55:52.950Z,12.70
2022-11-05T07:58:19.229Z,12.55
2022-11-05T08:00:45.705Z,13.23
2022-11-05T08:03:13.940Z,11.90
2022-11-05T08:05:44.487Z,13.48
2022-11-05T08:08:11.377Z,15.15
2022-11-05T08:10:38.187Z,14.27
2022-11-05T08:13:05.150Z,12.77
2022-11-05T08:15:31.909Z,11.18
2022-11-05T08:17:59.342Z,11.15
2022-11-05T08:20:26.275Z,12.40
2022-11-05T08:22:52.564Z,10.98
2022-11-05T08:25:18.823Z,11.10
2022-11-05T08:27:45.798Z,10.07
2022-11-05T08:30:12.488Z,10.70
2022-11-05T08:32:38.769Z,10.20
2022-11-05T08:35:05.290Z,10.00
2022-11-05T08:37:31.593Z,11.80
2022-11-05T08:39:57.863Z,10.13
2022-11-05T08:42:24.196Z,11.35
2022-11-05T08:44:50.472Z,11.32
2022-11-05T08:47:16.774Z,10.43
2022-11-05T08:49:43.090Z,12.18
2022-11-05T08:52:09.369Z,10.93
2022-11-05T08:54:35.757Z,11.25
2022-11-05T08:57:02.061Z,11.55
2022-11-05T08:59:29.809Z,9.57
2022-11-05T09:01:56.161Z,8.60
2022-11-05T09:04:22.581Z,9.57
2022-11-05T09:06:48.957Z,11.35
2022-11-05T09:09:15.240Z,10.55
2022-11-05T09:12:05.702Z,10.40
2022-11-05T09:14:28.374Z,8.88
2022-11-05T09:16:54.846Z,9.00
2022-11-05T09:19:21.171Z,7.35
2022-11-05T09:21:47.431Z,6.45
2022-11-05T09:24:13.846Z,6.45
2022-11-05T09:26:40.117Z,6.32
2022-11-05T09:29:09.231Z,6.10
2022-11-05T09:31:40.575Z,7.25
2022-11-05T09:34:07.209Z,7.13
2022-11-05T09:36:33.484Z,7.13
2022-11-05T09:38:59.763Z,8.43
2022-11-05T09:41:34.535Z,8.20
2022-11-05T09:44:03.749Z,6.38
2022-11-05T09:46:35.595Z,7.25
2022-11-05T09:49:04.182Z,6.72
2022-11-05T09:51:30.880Z,4.45
2022-11-05T09:53:59.446Z,4.88
2022-11-05T09:56:30.297Z,5.70
2022-11-05T09:59:02.272Z,4.93
2022-11-05T10:01:34.630Z,5.00
2022-11-05T10:04:02.595Z,5.00
2022-11-05T10:06:29.097Z,4.07
2022-11-05T10:09:03.603Z,4.80
2022-11-05T10:11:32.977Z,3.40
2022-11-05T10:14:18.710Z,4.07
2022-11-05T10:16:48.619Z,4.10
2022-11-05T10:19:21.987Z,3.83
2022-11-05T10:24:34.877Z,3.83
2022-11-05T10:27:01.372Z,4.10
2022-11-05T10:29:30.215Z,3.90
2022-11-05T10:31:57.573Z,2.60
2022-11-05T10:34:26.361Z,4.50
2022-11-05T10:36:54.398Z,2.95
2022-11-05T10:39:21.312Z,2.38
2022-11-05T10:42:05.680Z,2.00
2022-11-05T10:44:31.951Z,1.88
2022-11-05T10:46:58.211Z,2.40
2022-11-05T10:49:45.986Z,1.80
2022-11-05T10:52:23.876Z,2.13
2022-11-05T10:54:52.133Z,1.55
2022-11-05T10:57:38.441Z,1.95
2022-11-05T11:00:14.859Z,1.85
2022-11-05T11:02:42.069Z,1.70
2022-11-05T11:05:08.905Z,1.30
2022-11-05T11:07:36.157Z,3.17
2022-11-05T11:10:02.794Z,1.88
2022-11-05T11:12:39.770Z,5.40
2022-11-05T11:15:15.160Z,1.17
2022-11-05T11:17:41.426Z,1.50
2022-11-05T11:20:20.007Z,0.40
2022-11-05T11:23:09.962Z,0.82
2022-11-05T11:25:47.074Z,0.35
2022-11-05T11:28:33.385Z,1.00
2022-11-05T11:31:05.629Z,0.68
2022-11-05T11:33:32.943Z,0.82
2022-11-05T11:36:00.020Z,0.88
2022-11-05T11:38:29.077Z,0.90
2022-11-05T11:41:10.654Z,1.27
2022-11-05T11:43:38.429Z,0.80
2022-11-05T11:46:09.895Z,0.82
2022-11-05T11:48:40.071Z,1.50
2022-11-05T11:51:25.279Z,0.80
2022-11-05T11:53:55.863Z,1.00
2022-11-05T11:56:22.132Z,1.52
2022-11-05T11:58:52.881Z,1.00
2022-11-05T12:01:33.481Z,0.80
2022-11-05T12:04:03.802Z,1.30
2022-11-05T12:06:36.122Z,1.23
2022-11-05T12:09:08.331Z,0.77
2022-11-05T12:11:37.600Z,1.10
2022-11-05T12:14:09.094Z,0.93
2022-11-05T12:16:38.226Z,2.40
2022-11-05T12:19:21.972Z,0.95
2022-11-05T12:21:58.876Z,1.02
2022-11-05T12:24:43.790Z,1.05
2022-11-05T12:27:39.436Z,1.27
2022-11-05T12:30:09.961Z,1.38
2022-11-05T12:33:05.515Z,1.42
2022-11-05T12:35:49.026Z,1.65
2022-11-05T12:38:32.311Z,0.80
2022-11-05T12:41:16.943Z,0.60
2022-11-05T12:43:43.210Z,0.68
2022-11-05T12:46:09.537Z,0.75
2022-11-05T12:48:48.108Z,1.02
2022-11-05T12:51:25.557Z,0.28
2022-11-05T12:53:56.129Z,1.00
2022-11-05T12:56:45.415Z,0.75
2022-11-05T12:59:11.875Z,1.13
2022-11-05T13:01:41.604Z,1.58
2022-11-05T13:04:15.011Z,0.43
2022-11-05T13:06:44.233Z,0.75
2022-11-05T13:09:19.084Z,0.80
2022-11-05T13:11:51.690Z,0.30
2022-11-05T13:14:22.871Z,1.02
2022-11-05T13:16:50.157Z,0.47
2022-11-05T13:19:16.478Z,1.83
2022-11-05T13:21:43.816Z,0.40
2022-11-05T13:24:16.458Z,0.65
2022-11-05T13:26:53.947Z,0.65
2022-11-05T13:29:23.196Z,0.80
2022-11-05T13:31:52.433Z,0.38
2022-11-05T13:34:18.749Z,0.22
2022-11-05T13:37:06.838Z,0.55
2022-11-05T13:39:35.827Z,0.55
2022-11-05T13:42:20.909Z,2.33
2022-11-05T13:44:59.850Z,1.48
2022-11-05T13:47:26.316Z,0.55
2022-11-05T13:49:55.608Z,0.50
2022-11-05T13:52:24.873Z,0.52
2022-11-05T13:55:14.501Z,0.43
2022-11-05T13:57:40.930Z,0.40
2022-11-05T14:00:12.440Z,2.35
2022-11-05T14:02:41.379Z,1.50
2022-11-05T14:05:08.551Z,5.68
2022-11-05T14:07:43.929Z,4.57
2022-11-05T14:10:28.842Z,1.70
2022-11-05T14:12:56.114Z,5.43
2022-11-05T14:15:28.882Z,1.40
2022-11-05T14:18:00.842Z,1.40
2022-11-05T14:20:27.166Z,0.90
2022-11-05T14:22:53.539Z,1.70
2022-11-05T14:25:19.783Z,0.77
2022-11-05T14:27:47.665Z,1.30
2022-11-05T14:30:34.283Z,2.25
2022-11-05T14:33:04.377Z,0.93
2022-11-05T14:35:35.314Z,1.70
2022-11-05T14:38:02.184Z,0.82
2022-11-05T14:40:31.349Z,1.42
2022-11-05T14:43:00.491Z,1.10
2022-11-05T14:45:28.602Z,0.95
2022-11-05T14:47:59.739Z,0.80
2022-11-05T14:50:55.530Z,1.60
2022-11-05T14:53:27.206Z,1.85
2022-11-05T14:55:58.406Z,1.90
2022-11-05T14:58:25.514Z,2.58
2022-11-05T15:00:52.175Z,1.70
2022-11-05T15:03:32.594Z,1.90
2022-11-05T15:06:18.650Z,2.47
2022-11-05T15:08:47.953Z,3.35
2022-11-05T15:11:23.549Z,6.00
2022-11-05T15:13:55.589Z,7.30
2022-11-05T15:16:26.121Z,9.32
2022-11-05T15:18:53.907Z,13.32
2022-11-05T15:21:20.487Z,11.32
2022-11-05T15:23:48.141Z,8.18
2022-11-05T15:26:18.708Z,16.52
2022-11-05T15:28:49.230Z,18.85
2022-11-05T15:33:42.583Z,16.80
2022-11-05T15:36:26.390Z,14.88
2022-11-05T15:39:22.873Z,17.98
2022-11-05T15:41:39.181Z,18.80
2022-11-05T15:44:05.594Z,15.38
2022-11-05T15:46:31.990Z,12.45
2022-11-05T15:49:02.912Z,10.90
2022-11-05T15:51:29.413Z,8.23
2022-11-05T15:56:50.619Z,7.07
2022-11-05T15:59:18.267Z,6.38
2022-11-05T16:01:50.634Z,4.30
2022-11-05T16:04:21.888Z,3.75
2022-11-05T16:06:49.873Z,4.68
2022-11-05T16:09:23.656Z,3.83
2022-11-05T16:11:53.602Z,4.40
2022-11-05T16:14:20.104Z,2.67
2022-11-05T16:16:46.578Z,2.95
2022-11-05T16:19:35.584Z,3.53
2022-11-05T16:22:06.190Z,3.17
2022-11-05T16:24:32.717Z,4.07
2022-11-05T16:27:02.978Z,3.35
2022-11-05T16:29:38.139Z,4.13
2022-11-05T16:32:15.867Z,3.55
2022-11-05T16:34:45.481Z,3.35
2022-11-05T16:37:13.380Z,4.07
2022-11-05T16:39:39.671Z,4.32
2022-11-05T16:42:26.055Z,5.00
2022-11-05T16:44:53.634Z,6.78
2022-11-05T16:47:20.157Z,4.75
2022-11-05T16:49:50.063Z,4.97
2022-11-05T16:52:16.649Z,5.50
2022-11-05T16:54:43.109Z,5.32
2022-11-05T16:57:19.390Z,6.47
2022-11-05T16:59:45.676Z,4.55
2022-11-05T17:02:12.003Z,5.60
2022-11-05T17:04:38.364Z,5.03
2022-11-05T17:07:04.742Z,6.22
2022-11-05T17:09:31.855Z,6.13
2022-11-05T17:12:00.654Z,8.75
2022-11-05T17:14:26.946Z,6.57
2022-11-05T17:16:53.219Z,8.68
2022-11-05T17:19:19.505Z,7.68
2022-11-05T17:21:45.805Z,8.77
2022-11-05T17:24:12.114Z,7.80
2022-11-05T17:26:38.632Z,7.80
2022-11-05T17:29:04.937Z,7.10
2022-11-05T17:31:31.203Z,8.60
2022-11-05T17:33:58.311Z,6.82
2022-11-05T17:36:24.783Z,7.47
2022-11-05T17:38:51.527Z,8.02
2022-11-05T17:41:19.335Z,6.70
2022-11-05T17:43:46.118Z,6.38
2022-11-05T17:46:14.410Z,7.13
2022-11-05T17:48:40.865Z,6.50
2022-11-05T17:51:10.879Z,6.75
2022-11-05T17:53:37.354Z,6.80
2022-11-05T17:56:07.740Z,8.35
2022-11-05T18:01:00.260Z,6.07
2022-11-05T18:03:26.601Z,5.85
2022-11-05T18:05:52.882Z,5.63
2022-11-05T18:08:19.205Z,6.32
2022-11-05T18:10:45.505Z,6.43
2022-11-05T18:13:12.132Z,5.70
2022-11-05T18:15:40.995Z,6.40
2022-11-05T18:18:08.186Z,6.45
2022-11-05T18:20:34.475Z,6.63
2022-11-05T18:23:00.925Z,5.60
2022-11-05T18:25:27.204Z,8.07
2022-11-05T18:27:53.481Z,7.10
2022-11-05T18:30:19.975Z,6.03
2022-11-05T18:32:46.428Z,6.30
2022-11-05T18:35:13.443Z,7.55
2022-11-05T18:37:40.130Z,7.72
2022-11-05T18:40:06.897Z,7.03
2022-11-05T18:42:33.156Z,7.03
2022-11-05T18:44:59.744Z,6.97
2022-11-05T18:47:26.081Z,7.72
2022-11-05T18:49:52.362Z,7.45
2022-11-05T18:52:18.631Z,6.35
2022-11-05T18:54:44.980Z,6.03
2022-11-05T18:57:11.306Z,6.78
2022-11-05T18:59:39.386Z,8.32
2022-11-05T19:02:06.728Z,5.85
2022-11-05T19:04:34.691Z,5.80
2022-11-05T19:07:04.823Z,6.43
2022-11-05T19:09:32.542Z,6.70
2022-11-05T19:11:58.885Z,6.90
2022-11-05T19:14:25.213Z,6.10
2022-11-05T19:16:51.496Z,6.43
2022-11-05T19:19:17.778Z,7.93
2022-11-05T19:21:44.503Z,6.15
2022-11-05T19:24:16.842Z,5.93
2022-11-05T19:26:43.589Z,6.00
2022-11-05T19:29:09.952Z,7.30
2022-11-05T19:31:36.881Z,7.28
2022-11-05T19:34:03.448Z,7.13
2022-11-05T19:36:30.214Z,7.00
2022-11-05T19:38:57.864Z,6.10
2022-11-05T19:41:24.500Z,6.25
2022-11-05T19:43:51.166Z,7.70
2022-11-05T19:46:18.106Z,6.85
2022-11-05T19:48:44.743Z,5.68
2022-11-05T19:51:14.231Z,5.65
2022-11-05T19:53:40.577Z,5.17
2022-11-05T19:56:07.612Z,6.07
2022-11-05T19:58:33.974Z,5.30
2022-11-05T20:01:00.280Z,5.72
2022-11-05T20:03:26.643Z,4.80
2022-11-05T20:05:52.962Z,4.80
2022-11-05T20:08:19.283Z,5.65
2022-11-05T20:10:46.280Z,6.15
2022-11-05T20:13:19.474Z,6.22
2022-11-05T20:15:46.602Z,6.18
2022-11-05T20:18:13.372Z,5.40
2022-11-05T20:20:39.973Z,6.15
2022-11-05T20:23:06.335Z,6.18
2022-11-05T20:25:32.857Z,6.68
2022-11-05T20:27:59.153Z,6.55
2022-11-05T20:30:25.424Z,6.68
2022-11-05T20:32:55.145Z,6.07
2022-11-05T20:35:21.651Z,4.90
2022-11-05T20:37:52.837Z,6.00
2022-11-05T20:40:20.319Z,6.95
2022-11-05T20:42:46.597Z,5.97
2022-11-05T20:45:12.881Z,7.03
2022-11-05T20:47:39.155Z,5.28
2022-11-05T20:50:05.784Z,5.55
2022-11-05T20:52:32.060Z,5.72
2022-11-05T20:54:58.388Z,4.70
2022-11-05T20:57:24.704Z,5.05
2022-11-05T20:59:50.982Z,6.05
2022-11-05T21:02:17.449Z,4.25
2022-11-05T21:04:43.892Z,4.85
2022-11-05T21:07:10.230Z,4.35
2022-11-05T21:09:36.506Z,4.78
2022-11-05T21:12:11.980Z,4.82
2022-11-05T21:14:42.164Z,5.18
2022-11-05T21:17:09.949Z,4.82
2022-11-05T21:19:36.399Z,3.88
2022-11-05T21:22:03.587Z,3.90
2022-11-05T21:24:29.861Z,4.38
2022-11-05T21:26:56.156Z,5.13
2022-11-05T21:29:22.425Z,4.55
2022-11-05T21:31:48.716Z,4.47
2022-11-05T21:34:15.670Z,5.45
2022-11-05T21:36:41.961Z,5.25
2022-11-05T21:39:13.471Z,3.90
2022-11-05T21:41:40.377Z,4.80
2022-11-05T21:44:06.660Z,4.78
2022-11-05T21:46:32.990Z,4.38
2022-11-05T21:48:59.278Z,5.60
2022-11-05T21:51:44.432Z,3.95
2022-11-05T21:54:29.777Z,3.92
2022-11-05T21:57:14.571Z,4.32
2022-11-05T21:59:51.618Z,4.10
2022-11-05T22:02:22.342Z,3.67
2022-11-05T22:04:50.315Z,3.58
2022-11-05T22:07:18.380Z,3.05
2022-11-05T22:09:44.820Z,3.50
2022-11-05T22:12:11.311Z,3.60
2022-11-05T22:14:37.860Z,3.58
2022-11-05T22:17:04.577Z,4.32
2022-11-05T22:19:30.872Z,3.95
2022-11-05T22:21:57.100Z,3.75
2022-11-05T22:24:24.069Z,4.57
2022-11-05T22:26:50.405Z,4.65
2022-11-05T22:29:16.805Z,4.15
2022-11-05T22:31:43.262Z,4.00
2022-11-05T22:34:09.844Z,3.30
2022-11-05T22:36:36.173Z,3.70
2022-11-05T22:39:02.511Z,3.65
2022-11-05T22:41:28.917Z,2.97
2022-11-05T22:43:55.691Z,3.58
2022-11-05T22:46:23.393Z,4.03
2022-11-05T22:48:50.738Z,3.60
2022-11-05T22:51:18.459Z,4.45
2022-11-05T22:53:44.724Z,3.45
2022-11-05T22:56:13.029Z,4.35
2022-11-05T22:58:39.632Z,3.70
2022-11-05T23:01:06.817Z,3.90
2022-11-05T23:03:33.295Z,5.00
2022-11-05T23:06:00.734Z,4.65
2022-11-05T23:08:45.551Z,4.35
2022-11-05T23:11:33.531Z,4.75
2022-11-05T23:14:00.109Z,4.03
2022-11-05T23:16:45.834Z,3.20
2022-11-05T23:19:30.613Z,4.85
2022-11-05T23:22:15.972Z,4.68
2022-11-05T23:24:42.471Z,4.25
2022-11-05T23:27:09.549Z,5.20
2022-11-05T23:29:35.813Z,5.18
2022-11-05T23:32:20.640Z,4.82
2022-11-05T23:34:46.915Z,5.30
2022-11-05T23:37:31.648Z,4.75
2022-11-05T23:39:58.136Z,6.28
2022-11-05T23:42:42.847Z,5.50
2022-11-05T23:45:28.167Z,6.10
2022-11-05T23:48:12.989Z,5.38
2022-11-05T23:50:40.345Z,5.35
2022-11-05T23:53:07.252Z,6.13
2022-11-05T23:55:33.628Z,5.90
2022-11-05T23:57:59.987Z,5.65
